createdAt,value
2018-11-13T00:00:32.497Z,96733.00
2018-11-13T00:03:03.373Z,96722.00
2018-11-13T00:05:33.476Z,96722.00
2018-11-13T00:08:03.653Z,96728.00
2018-11-13T00:10:33.785Z,96727.00
2018-11-13T00:13:03.953Z,96726.00
2018-11-13T00:15:34.152Z,96730.00
2018-11-13T00:18:04.601Z,96724.00
2018-11-13T00:20:34.693Z,96730.00
2018-11-13T00:23:05.141Z,96730.00
2018-11-13T00:25:35.285Z,96739.00
2018-11-13T00:28:05.489Z,96727.00
2018-11-13T00:30:35.589Z,96728.00
2018-11-13T00:33:06.397Z,96729.00
2018-11-13T00:35:36.517Z,96721.00
2018-11-13T00:38:07.085Z,96732.00
2018-11-13T00:40:37.188Z,96733.00
2018-11-13T00:43:07.309Z,96751.00
2018-11-13T00:45:37.420Z,96749.00
2018-11-13T00:48:07.505Z,96751.00
2018-11-13T00:50:38.119Z,96745.00
2018-11-13T00:53:08.188Z,96744.00
2018-11-13T00:55:38.306Z,96747.00
2018-11-13T00:58:08.409Z,96743.00
2018-11-13T01:00:38.576Z,96736.00
2018-11-13T01:03:08.640Z,96745.00
2018-11-13T01:05:38.768Z,96728.00
2018-11-13T01:08:08.870Z,96731.00
2018-11-13T01:10:38.996Z,96745.00
2018-11-13T01:13:09.213Z,96741.00
2018-11-13T01:15:53.449Z,96744.00
2018-11-13T01:18:51.422Z,96733.00
2018-11-13T01:21:40.871Z,96734.00
2018-11-13T01:24:30.956Z,96722.00
2018-11-13T01:27:19.988Z,96732.00
2018-11-13T01:33:04.698Z,96726.00
2018-11-13T01:35:50.169Z,96721.00
2018-11-13T01:39:08.630Z,96709.00
2018-11-13T01:41:58.205Z,96731.00
2018-11-13T01:44:50.064Z,96728.00
2018-11-13T01:47:34.693Z,96722.00
2018-11-13T01:53:12.924Z,96715.00
2018-11-13T01:56:00.662Z,96713.00
2018-11-13T01:58:52.789Z,96708.00
2018-11-13T02:01:53.528Z,96709.00
2018-11-13T02:04:39.824Z,96715.00
2018-11-13T02:07:22.641Z,96706.00
2018-11-13T02:10:10.852Z,96706.00
2018-11-13T02:13:01.690Z,96707.00
2018-11-13T02:15:49.831Z,96706.00
2018-11-13T02:18:42.482Z,96710.00
2018-11-13T02:21:28.367Z,96699.00
2018-11-13T02:24:10.494Z,96709.00
2018-11-13T02:26:58.647Z,96695.00
2018-11-13T02:29:42.347Z,96684.00
2018-11-13T02:32:22.302Z,96692.00
2018-11-13T02:35:07.161Z,96688.00
2018-11-13T02:37:54.554Z,96682.00
2018-11-13T02:43:37.855Z,96680.00
2018-11-13T02:46:25.773Z,96686.00
2018-11-13T02:49:08.894Z,96688.00
2018-11-13T02:51:52.735Z,96686.00
2018-11-13T02:54:44.360Z,96695.00
2018-11-13T02:57:30.560Z,96682.00
2018-11-13T03:00:26.377Z,96682.00
2018-11-13T03:03:14.621Z,96677.00
2018-11-13T03:05:58.562Z,96678.00
2018-11-13T03:08:41.408Z,96694.00
2018-11-13T03:11:24.221Z,96694.00
2018-11-13T03:14:17.050Z,96710.00
2018-11-13T03:17:04.464Z,96705.00
2018-11-13T03:19:50.873Z,96703.00
2018-11-13T03:22:34.615Z,96698.00
2018-11-13T03:25:32.244Z,96694.00
2018-11-13T03:28:16.322Z,96696.00
2018-11-13T03:31:02.132Z,96696.00
2018-11-13T03:33:43.991Z,96693.00
2018-11-13T03:36:22.828Z,96689.00
2018-11-13T03:39:04.099Z,96687.00
2018-11-13T03:42:02.466Z,96691.00
2018-11-13T03:45:02.305Z,96687.00
2018-11-13T03:47:47.991Z,96688.00
2018-11-13T03:50:41.424Z,96691.00
2018-11-13T03:53:32.174Z,96699.00
2018-11-13T03:56:20.917Z,96698.00
2018-11-13T03:59:25.132Z,96695.00
2018-11-13T04:02:18.701Z,96695.00
2018-11-13T04:05:15.120Z,96688.00
2018-11-13T04:08:03.586Z,96689.00
2018-11-13T04:10:52.444Z,96694.00
2018-11-13T04:13:56.884Z,96693.00
2018-11-13T04:16:43.064Z,96690.00
2018-11-13T04:22:34.163Z,96692.00
2018-11-13T04:25:32.679Z,96697.00
2018-11-13T04:28:21.128Z,96681.00
2018-11-13T04:31:13.980Z,96683.00
2018-11-13T04:34:02.181Z,96681.00
2018-11-13T04:36:49.956Z,96686.00
2018-11-13T04:39:48.542Z,96694.00
2018-11-13T04:43:12.831Z,96696.00
2018-11-13T04:45:59.232Z,96697.00
2018-11-13T04:48:47.975Z,96700.00
2018-11-13T04:51:43.759Z,96700.00
2018-11-13T04:54:43.488Z,96696.00
2018-11-13T04:57:29.994Z,96700.00
2018-11-13T05:00:17.174Z,96714.00
2018-11-13T05:03:01.171Z,96717.00
2018-11-13T05:05:52.633Z,96712.00
2018-11-13T05:08:51.502Z,96707.00
2018-11-13T05:11:43.050Z,96709.00
2018-11-13T05:14:45.398Z,96712.00
2018-11-13T05:17:32.211Z,96726.00
2018-11-13T05:20:15.853Z,96725.00
2018-11-13T05:23:04.960Z,96733.00
2018-11-13T05:25:54.995Z,96726.00
2018-11-13T05:28:51.635Z,96727.00
2018-11-13T05:31:47.666Z,96746.00
2018-11-13T05:34:45.737Z,96732.00
2018-11-13T05:37:37.974Z,96723.00
2018-11-13T05:40:30.805Z,96725.00
2018-11-13T05:46:37.648Z,96703.00
2018-11-13T05:49:32.769Z,96713.00
2018-11-13T05:52:25.789Z,96706.00
2018-11-13T05:55:16.554Z,96706.00
2018-11-13T05:57:56.496Z,96707.00
2018-11-13T06:00:42.222Z,96703.00
2018-11-13T06:03:28.219Z,96695.00
2018-11-13T06:09:32.865Z,96709.00
2018-11-13T06:12:31.963Z,96718.00
2018-11-13T06:15:24.917Z,96723.00
2018-11-13T06:18:17.193Z,96715.00
2018-11-13T06:21:12.771Z,96727.00
2018-11-13T06:23:57.845Z,96724.00
2018-11-13T06:26:47.621Z,96728.00
2018-11-13T06:29:36.876Z,96726.00
2018-11-13T06:32:26.669Z,96717.00
2018-11-13T06:39:15.479Z,96727.00
2018-11-13T06:42:30.475Z,96731.00
2018-11-13T06:48:25.854Z,96754.00
2018-11-13T06:51:12.784Z,96763.00
2018-11-13T06:57:11.879Z,96749.00
2018-11-13T06:59:59.105Z,96746.00
2018-11-13T07:05:52.387Z,96746.00
2018-11-13T07:12:02.897Z,96760.00
2018-11-13T07:15:17.946Z,96771.00
2018-11-13T07:21:40.411Z,96774.00
2018-11-13T07:24:29.986Z,96771.00
2018-11-13T07:27:18.404Z,96769.00
2018-11-13T07:33:02.324Z,96761.00
2018-11-13T07:35:49.310Z,96759.00
2018-11-13T07:41:46.587Z,96784.00
2018-11-13T07:44:33.073Z,96780.00
2018-11-13T07:47:21.233Z,96783.00
2018-11-13T07:50:15.846Z,96789.00
2018-11-13T07:53:22.705Z,96804.00
2018-11-13T07:56:35.245Z,96805.00
2018-11-13T07:59:35.135Z,96805.00
2018-11-13T08:02:34.746Z,96822.00
2018-11-13T08:05:34.108Z,96823.00
2018-11-13T08:08:36.526Z,96827.00
2018-11-13T08:14:26.739Z,96830.00
2018-11-13T08:17:26.678Z,96843.00
2018-11-13T08:23:25.363Z,96840.00
2018-11-13T08:26:12.197Z,96832.00
2018-11-13T08:31:58.870Z,96843.00
2018-11-13T08:34:49.035Z,96841.00
2018-11-13T08:40:36.973Z,96860.00
2018-11-13T08:43:31.973Z,96857.00
2018-11-13T08:46:25.793Z,96851.00
2018-11-13T08:49:28.429Z,96862.00
2018-11-13T08:55:50.563Z,96864.00
2018-11-13T08:58:38.410Z,96873.00
2018-11-13T09:01:31.251Z,96870.00
2018-11-13T09:04:26.866Z,96881.00
2018-11-13T09:13:49.557Z,96881.00
2018-11-13T09:19:36.280Z,96886.00
2018-11-13T09:22:32.927Z,96884.00
2018-11-13T09:25:19.330Z,96879.00
2018-11-13T09:28:11.667Z,96887.00
2018-11-13T09:31:03.282Z,96888.00
2018-11-13T09:33:55.938Z,96897.00
2018-11-13T09:40:18.812Z,96882.00
2018-11-13T09:43:07.551Z,96886.00
2018-11-13T09:45:56.889Z,96881.00
2018-11-13T09:48:46.826Z,96869.00
2018-11-13T09:51:41.850Z,96873.00
2018-11-13T09:54:35.395Z,96879.00
2018-11-13T10:00:13.272Z,96889.00
2018-11-13T10:02:58.922Z,96889.00
2018-11-13T10:05:58.018Z,96899.00
2018-11-13T10:08:49.414Z,96897.00
2018-11-13T10:11:49.939Z,96895.00
2018-11-13T10:14:46.790Z,96895.00
2018-11-13T10:17:37.969Z,96890.00
2018-11-13T10:20:33.723Z,96890.00
2018-11-13T10:23:26.473Z,96886.00
2018-11-13T10:35:07.066Z,96896.00
2018-11-13T10:37:58.004Z,96885.00
2018-11-13T10:43:57.136Z,96900.00
2018-11-13T10:46:49.670Z,96900.00
2018-11-13T10:49:43.873Z,96898.00
2018-11-13T10:52:41.106Z,96871.00
2018-11-13T10:55:34.060Z,96871.00
2018-11-13T10:58:24.069Z,96904.00
2018-11-13T11:01:38.659Z,96913.00
2018-11-13T11:04:37.295Z,96902.00
2018-11-13T11:10:43.723Z,96897.00
2018-11-13T11:13:28.723Z,96892.00
2018-11-13T11:16:20.990Z,96916.00
2018-11-13T11:19:05.081Z,96921.00
2018-11-13T11:21:55.840Z,96897.00
2018-11-13T11:24:55.328Z,96899.00
2018-11-13T11:27:54.149Z,96913.00
2018-11-13T11:31:01.035Z,96921.00
2018-11-13T11:36:58.705Z,96931.00
2018-11-13T11:42:48.302Z,96938.00
2018-11-13T11:45:38.183Z,96941.00
2018-11-13T11:51:27.984Z,96953.00
2018-11-13T11:54:16.765Z,96953.00
2018-11-13T12:04:03.084Z,96952.00
2018-11-13T12:09:49.876Z,96955.00
2018-11-13T12:15:30.296Z,96951.00
2018-11-13T12:21:23.875Z,96959.00
2018-11-13T12:23:57.099Z,96975.00
2018-11-13T12:26:27.369Z,96975.00
2018-11-13T12:28:57.509Z,96970.00
2018-11-13T12:31:27.677Z,96966.00
2018-11-13T12:33:58.653Z,96969.00
2018-11-13T12:36:28.758Z,96968.00
2018-11-13T12:38:58.856Z,96965.00
2018-11-13T12:41:28.965Z,96970.00
2018-11-13T12:44:00.476Z,96968.00
2018-11-13T12:46:30.604Z,96976.00
2018-11-13T12:49:00.822Z,96970.00
2018-11-13T12:51:35.357Z,96965.00
2018-11-13T12:54:05.484Z,96964.00
2018-11-13T12:56:35.585Z,96966.00
2018-11-13T12:59:05.729Z,96973.00
2018-11-13T13:01:35.838Z,96968.00
2018-11-13T13:04:06.425Z,96983.00
2018-11-13T13:06:36.557Z,96982.00
2018-11-13T13:09:09.275Z,96978.00
2018-11-13T13:11:39.629Z,96983.00
2018-11-13T13:14:17.174Z,96980.00
2018-11-13T13:16:47.369Z,96999.00
2018-11-13T13:19:17.489Z,96990.00
2018-11-13T13:21:47.619Z,97009.00
2018-11-13T13:24:18.121Z,97012.00
2018-11-13T13:26:48.241Z,97012.00
2018-11-13T13:29:18.434Z,96991.00
2018-11-13T13:31:48.647Z,97000.00
2018-11-13T13:34:18.724Z,97006.00
2018-11-13T13:36:48.868Z,97013.00
2018-11-13T13:39:18.974Z,97014.00
2018-11-13T13:41:49.100Z,97013.00
2018-11-13T13:44:19.208Z,97020.00
2018-11-13T13:46:49.556Z,97028.00
2018-11-13T13:49:19.744Z,97030.00
2018-11-13T13:51:49.861Z,97028.00
2018-11-13T13:54:19.994Z,97028.00
2018-11-13T13:56:50.242Z,97026.00
2018-11-13T13:59:21.030Z,97027.00
2018-11-13T14:01:51.116Z,97035.00
2018-11-13T14:04:21.224Z,97033.00
2018-11-13T14:06:51.333Z,97037.00
2018-11-13T14:09:21.519Z,97038.00
2018-11-13T14:11:51.573Z,97044.00
2018-11-13T14:14:21.693Z,97050.00
2018-11-13T14:16:51.777Z,97056.00
2018-11-13T14:19:21.889Z,97055.00
2018-11-13T14:21:52.277Z,97057.00
2018-11-13T14:24:22.638Z,97067.00
2018-11-13T14:27:55.743Z,97056.00
2018-11-13T14:30:28.476Z,97060.00
2018-11-13T14:33:01.026Z,97063.00
2018-11-13T14:35:31.254Z,97051.00
2018-11-13T14:38:01.882Z,97060.00
2018-11-13T14:40:36.712Z,97058.00
2018-11-13T14:43:07.653Z,97059.00
2018-11-13T14:45:37.765Z,97067.00
2018-11-13T14:48:09.120Z,97070.00
2018-11-13T14:50:39.839Z,97073.00
2018-11-13T14:53:10.487Z,97075.00
2018-11-13T14:55:42.696Z,97076.00
2018-11-13T14:58:13.986Z,97082.00
2018-11-13T15:00:44.288Z,97084.00
2018-11-13T15:03:15.787Z,97076.00
2018-11-13T15:05:45.955Z,97080.00
2018-11-13T15:08:16.113Z,97093.00
2018-11-13T15:10:50.428Z,97096.00
2018-11-13T15:13:21.569Z,97086.00
2018-11-13T15:15:51.669Z,97094.00
2018-11-13T15:18:21.913Z,97096.00
2018-11-13T15:20:52.894Z,97102.00
2018-11-13T15:23:23.100Z,97096.00
2018-11-13T15:25:53.169Z,97107.00
2018-11-13T15:28:23.277Z,97106.00
2018-11-13T15:30:53.444Z,97103.00
2018-11-13T15:33:25.069Z,97109.00
2018-11-13T15:35:55.154Z,97112.00
2018-11-13T15:38:25.241Z,97112.00
2018-11-13T15:40:55.337Z,97109.00
2018-11-13T15:43:25.420Z,97110.00
2018-11-13T15:45:56.172Z,97126.00
2018-11-13T15:48:26.265Z,97123.00
2018-11-13T15:50:56.372Z,97132.00
2018-11-13T15:53:26.498Z,97130.00
2018-11-13T15:55:56.575Z,97135.00
2018-11-13T15:58:26.670Z,97142.00
2018-11-13T16:00:56.792Z,97144.00
2018-11-13T16:03:33.712Z,97151.00
2018-11-13T16:06:03.915Z,97154.00
2018-11-13T16:08:33.960Z,97150.00
2018-11-13T16:11:04.075Z,97152.00
2018-11-13T16:13:34.193Z,97166.00
2018-11-13T16:16:04.293Z,97153.00
2018-11-13T16:18:34.459Z,97152.00
2018-11-13T16:21:04.516Z,97166.00
2018-11-13T16:23:34.613Z,97165.00
2018-11-13T16:26:05.132Z,97157.00
2018-11-13T16:28:35.244Z,97168.00
2018-11-13T16:31:05.532Z,97173.00
2018-11-13T16:33:35.645Z,97184.00
2018-11-13T16:36:05.836Z,97189.00
2018-11-13T16:38:36.068Z,97186.00
2018-11-13T16:41:06.120Z,97179.00
2018-11-13T16:43:36.205Z,97183.00
2018-11-13T16:46:06.435Z,97183.00
2018-11-13T16:48:36.585Z,97190.00
2018-11-13T16:51:06.692Z,97175.00
2018-11-13T16:53:41.895Z,97179.00
2018-11-13T16:56:11.989Z,97170.00
2018-11-13T16:58:42.076Z,97177.00
2018-11-13T17:01:12.315Z,97172.00
2018-11-13T17:03:42.459Z,97180.00
2018-11-13T17:06:12.521Z,97184.00
2018-11-13T17:08:42.637Z,97190.00
2018-11-13T17:11:12.683Z,97200.00
2018-11-13T17:13:42.816Z,97210.00
2018-11-13T17:16:13.069Z,97221.00
2018-11-13T17:18:43.205Z,97233.00
2018-11-13T17:21:13.376Z,97236.00
2018-11-13T17:23:43.612Z,97226.00
2018-11-13T17:26:13.944Z,97215.00
2018-11-13T17:28:44.107Z,97225.00
2018-11-13T17:31:15.064Z,97226.00
2018-11-13T17:33:45.948Z,97226.00
2018-11-13T17:36:16.032Z,97230.00
2018-11-13T17:38:46.113Z,97223.00
2018-11-13T17:41:16.284Z,97228.00
2018-11-13T17:43:46.516Z,97239.00
2018-11-13T17:46:16.610Z,97237.00
2018-11-13T17:48:46.728Z,97243.00
2018-11-13T17:51:16.824Z,97237.00
2018-11-13T17:53:46.918Z,97239.00
2018-11-13T17:56:17.045Z,97255.00
2018-11-13T17:58:47.206Z,97245.00
2018-11-13T18:01:17.428Z,97244.00
2018-11-13T18:03:47.604Z,97239.00
2018-11-13T18:06:17.737Z,97246.00
2018-11-13T18:08:48.027Z,97244.00
2018-11-13T18:11:18.176Z,97237.00
2018-11-13T18:13:48.269Z,97242.00
2018-11-13T18:16:18.444Z,97242.00
2018-11-13T18:18:48.457Z,97247.00
2018-11-13T18:21:18.540Z,97253.00
2018-11-13T18:23:48.640Z,97246.00
2018-11-13T18:26:18.733Z,97264.00
2018-11-13T18:28:48.890Z,97261.00
2018-11-13T18:31:18.953Z,97260.00
2018-11-13T18:33:49.052Z,97274.00
2018-11-13T18:36:19.157Z,97272.00
2018-11-13T18:38:49.486Z,97273.00
2018-11-13T18:41:19.557Z,97270.00
2018-11-13T18:43:49.819Z,97273.00
2018-11-13T18:46:20.112Z,97274.00
2018-11-13T18:48:50.468Z,97268.00
2018-11-13T18:51:20.910Z,97274.00
2018-11-13T18:53:51.136Z,97278.00
2018-11-13T18:56:21.448Z,97272.00
2018-11-13T18:58:51.830Z,97280.00
2018-11-13T19:01:22.200Z,97274.00
2018-11-13T19:03:52.599Z,97277.00
2018-11-13T19:06:22.897Z,97279.00
2018-11-13T19:08:53.322Z,97294.00
2018-11-13T19:11:24.833Z,97292.00
2018-11-13T19:13:57.676Z,97285.00
2018-11-13T19:16:29.391Z,97283.00
2018-11-13T19:19:00.489Z,97284.00
2018-11-13T19:21:31.363Z,97286.00
2018-11-13T19:24:02.245Z,97291.00
2018-11-13T19:26:32.809Z,97295.00
2018-11-13T19:29:03.713Z,97291.00
2018-11-13T19:31:34.251Z,97290.00
2018-11-13T19:34:04.981Z,97293.00
2018-11-13T19:36:35.350Z,97296.00
2018-11-13T19:39:09.145Z,97294.00
2018-11-13T19:41:40.056Z,97297.00
2018-11-13T19:44:10.361Z,97293.00
2018-11-13T19:46:40.746Z,97294.00
2018-11-13T19:49:11.242Z,97290.00
2018-11-13T19:51:42.275Z,97298.00
2018-11-13T19:54:13.086Z,97295.00
2018-11-13T19:56:43.820Z,97294.00
2018-11-13T19:59:15.695Z,97289.00
2018-11-13T20:01:46.629Z,97302.00
2018-11-13T20:04:17.587Z,97297.00
2018-11-13T20:06:48.100Z,97301.00
2018-11-13T20:09:18.468Z,97297.00
2018-11-13T20:11:49.186Z,97292.00
2018-11-13T20:14:19.748Z,97310.00
2018-11-13T20:16:50.665Z,97301.00
2018-11-13T20:19:21.014Z,97305.00
2018-11-13T20:21:51.762Z,97310.00
2018-11-13T20:24:22.327Z,97319.00
2018-11-13T20:26:52.839Z,97327.00
2018-11-13T20:29:23.423Z,97339.00
2018-11-13T20:31:53.699Z,97334.00
2018-11-13T20:34:24.582Z,97316.00
2018-11-13T20:36:54.833Z,97334.00
2018-11-13T20:39:26.486Z,97338.00
2018-11-13T20:41:56.709Z,97335.00
2018-11-13T20:44:26.996Z,97330.00
2018-11-13T20:46:57.159Z,97337.00
2018-11-13T20:49:27.488Z,97329.00
2018-11-13T20:51:57.807Z,97330.00
2018-11-13T20:54:28.472Z,97352.00
2018-11-13T20:56:58.944Z,97337.00
2018-11-13T20:59:29.313Z,97329.00
2018-11-13T21:02:00.070Z,97329.00
2018-11-13T21:04:31.154Z,97335.00
2018-11-13T21:07:01.252Z,97338.00
2018-11-13T21:09:31.512Z,97344.00
2018-11-13T21:12:01.789Z,97339.00
2018-11-13T21:14:32.222Z,97332.00
2018-11-13T21:17:03.096Z,97327.00
2018-11-13T21:19:32.917Z,97325.00
2018-11-13T21:22:03.162Z,97333.00
2018-11-13T21:24:33.340Z,97334.00
2018-11-13T21:27:03.604Z,97340.00
2018-11-13T21:29:33.879Z,97339.00
2018-11-13T21:32:04.098Z,97342.00
2018-11-13T21:34:34.330Z,97344.00
2018-11-13T21:37:04.476Z,97364.00
2018-11-13T21:39:34.797Z,97358.00
2018-11-13T21:42:05.192Z,97360.00
2018-11-13T21:44:35.356Z,97358.00
2018-11-13T21:47:05.807Z,97376.00
2018-11-13T21:49:35.909Z,97371.00
2018-11-13T21:52:06.078Z,97369.00
2018-11-13T21:54:36.241Z,97367.00
2018-11-13T21:57:06.521Z,97366.00
2018-11-13T21:59:36.607Z,97374.00
2018-11-13T22:02:06.820Z,97365.00
2018-11-13T22:04:36.943Z,97371.00
2018-11-13T22:07:07.109Z,97366.00
2018-11-13T22:09:37.216Z,97378.00
2018-11-13T22:12:07.348Z,97368.00
2018-11-13T22:14:37.461Z,97375.00
2018-11-13T22:17:07.822Z,97382.00
2018-11-13T22:19:37.992Z,97387.00
2018-11-13T22:22:08.124Z,97393.00
2018-11-13T22:24:38.181Z,97395.00
2018-11-13T22:27:08.352Z,97397.00
2018-11-13T22:29:39.302Z,97397.00
2018-11-13T22:32:09.510Z,97385.00
2018-11-13T22:37:52.215Z,97381.00
2018-11-13T22:40:44.882Z,97392.00
2018-11-13T22:46:09.221Z,97395.00
2018-11-13T22:48:39.369Z,97399.00
2018-11-13T22:51:37.391Z,97411.00
2018-11-13T22:54:37.929Z,97407.00
2018-11-13T22:57:23.505Z,97413.00
2018-11-13T23:03:19.635Z,97419.00
2018-11-13T23:06:23.897Z,97417.00
2018-11-13T23:13:03.969Z,97431.00
2018-11-13T23:15:59.103Z,97421.00
2018-11-13T23:18:58.388Z,97411.00
2018-11-13T23:21:28.980Z,97415.00
2018-11-13T23:37:49.240Z,97435.00
2018-11-13T23:40:20.950Z,97435.00
2018-11-13T23:42:51.885Z,97436.00
2018-11-13T23:45:23.724Z,97433.00
2018-11-13T23:47:54.296Z,97432.00
2018-11-13T23:50:42.877Z,97443.00
2018-11-13T23:53:12.996Z,97436.00
2018-11-13T23:55:43.143Z,97443.00
2018-11-13T23:58:13.236Z,97443.00
